LFOTLFLU

Guest
Details From LFOT - Tours Val De Loire AB
To LFLU - Valence Chabeuil
Flight Number -
Tags generated
Created
Modified
Stats Distance 236 nm / 437 km
Max Altitude 25,600 ft / 7,803 m
Waypoints 4
Social Downloads 0
Likes 0
Share VATSIM

Download

Looking for another format? Having issues loading an existing format? Contact us
Advertisement - Login to hide

Notes

Basic altitude profile: - Ascent Rate: 2500ft/min - Ascent Speed: 250kts - Cruise Altitude: 35000ft - Cruise Speed: 420kts - Descent Rate: 1500ft/min - Descent Speed: 250kts

Route

LFOT ETAMO UZ271 ADEKA LFLU

ID Type Via Altitude Latitude Longitude Leg Dist Tot Dist Heading (true) Name
O LFOT APT - 0 ft / 0 m 47.43297˚ 0.72840˚ - 0 nm - Tours Val De Loire AB
ETAMO FIX - 25,600 ft / 7,803 m 46.84028˚ 2.33750˚ 74 nm 74 nm 118° / 119° -
ADEKA FIX UZ271 (AWY-HI) 19,800 ft / 6,035 m 45.94167˚ 3.18000˚ 64 nm 139 nm 147° / 147° -
O LFLU APT - 0 ft / 0 m 44.92159˚ 4.96990˚ 97 nm 236 nm 128° / 130° Valence Chabeuil

Altitude Profile

Advertisement - Login to hide

Weather


0- 5 10 15 20 25 30 35+ Temperature / ° C

Clouds and Precipitation
Forecast for 2017-12-12 12:00 UTC. Updated an hour ago

Ground ~20,000 ft ~40,000 ft Winds

LFOT

Details ICAO LFOT (TUF)
Name Tours Val De Loire AB
Region France
Timezone Europe/Paris (UTC+1.0)
Stats Elevation 356 ft / 109 m (AMSL)
Location 47.432974° 0.728402°
Runways 2
Magnetic Variation 0.191° E

METAR

LFOT 121000Z AUTO 19005KT 160V230 9999 BKN045 OVC076 03/00 Q1013

Decode

TAF

Not found

Departure Runways

ID Width Length Bearing (true) Bearing (mag) Surface Threshold Offset Overrun Length
02 148 ft / 45 m 7,891 ft / 2,405 m 15.22° 15.03° Concrete 0 ft / 0 m 968 ft / 295 m
02R 197 ft / 60 m 4,925 ft / 1,501 m 15.24° 15.05° Grass 0 ft / 0 m 0 ft / 0 m
20 148 ft / 45 m 7,891 ft / 2,405 m 195.22° 195.03° Concrete 0 ft / 0 m 393 ft / 120 m
20L 197 ft / 60 m 4,925 ft / 1,501 m 195.24° 195.05° Grass 0 ft / 0 m 0 ft / 0 m

LFLU

Details ICAO LFLU (VAF)
Name Valence Chabeuil
Region France
Timezone Europe/Paris (UTC+1.0)
Stats Elevation 525 ft / 160 m (AMSL)
Location 44.921594° 4.969900°
Runways 1
Magnetic Variation 1.473° E

METAR

LFLU 121000Z AUTO 35010KT 9999 SCT015 OVC029 04/03 Q1013

Decode

TAF

Not found

Destination Runways

ID Width Length Bearing (true) Bearing (mag) Surface Threshold Offset Overrun Length
01 148 ft / 45 m 6,896 ft / 2,102 m 7.74° 6.27° Asphalt 771 ft / 235 m 0 ft / 0 m
19 148 ft / 45 m 6,896 ft / 2,102 m 187.74° 186.27° Asphalt 0 ft / 0 m 0 ft / 0 m

Approach Navaids

Runway Type Ident Frequency Range Bearing (true) Bearing (mag) Slope Elevation
01 Localiser VE 110.15 MHz 18 nm / 33 km 7.74° 6.27° - 547 ft / 167 m (AMSL)
01 Glidescope VE 110.15 MHz 10 nm / 19 km 7.74° 6.27° 3.00° 574 ft / 175 m (AMSL)
01 DME VE 110.15 MHz 18 nm / 33 km - - - 574 ft / 175 m (AMSL)